Terminal Aerodrome Forecast
Issued by NWS

Home | Current Version | Previous Version | Text Only | Print | Product List | Glossary On
Versions: 1 2 3 4 5 6 7 8 9 10 11 12 13 14
000
FTUS45 KREV 192300
TAFRNO
TAF
KRNO 192326Z 2000/2024 29017G27KT P6SM FEW100 BKN200
     FM200500 VRB04KT P6SM FEW200
     FM201900 05007KT P6SM SKC=

USA.gov is the U.S. government's official web portal to all federal, state and local government web resources and services.